sensor_id;sensor_type;location;lat;lon;timestamp;P1;durP1;ratioP1;P2;durP2;ratioP2
47365;SDS011;33105;47.964;7.982;2023-08-01T00:02:48;7.72;;;3.80;;
47365;SDS011;33105;47.964;7.982;2023-08-01T00:06:42;7.80;;;4.20;;
47365;SDS011;33105;47.964;7.982;2023-08-01T00:09:44;7.32;;;4.28;;
47365;SDS011;33105;47.964;7.982;2023-08-01T00:13:08;9.90;;;4.22;;
47365;SDS011;33105;47.964;7.982;2023-08-01T00:16:13;10.48;;;4.22;;
47365;SDS011;33105;47.964;7.982;2023-08-01T00:27:49;11.30;;;4.28;;
47365;SDS011;33105;47.964;7.982;2023-08-01T00:31:14;6.40;;;4.13;;
47365;SDS011;33105;47.964;7.982;2023-08-01T00:34:49;8.40;;;4.93;;
47365;SDS011;33105;47.964;7.982;2023-08-01T00:42:00;10.63;;;4.68;;
47365;SDS011;33105;47.964;7.982;2023-08-01T00:45:02;10.93;;;5.03;;
47365;SDS011;33105;47.964;7.982;2023-08-01T00:48:10;12.70;;;4.80;;
47365;SDS011;33105;47.964;7.982;2023-08-01T00:51:11;10.07;;;4.65;;
47365;SDS011;33105;47.964;7.982;2023-08-01T00:54:57;10.80;;;5.00;;
47365;SDS011;33105;47.964;7.982;2023-08-01T00:58:22;10.32;;;5.05;;
47365;SDS011;33105;47.964;7.982;2023-08-01T01:05:24;11.88;;;5.78;;
47365;SDS011;33105;47.964;7.982;2023-08-01T01:08:56;12.20;;;5.13;;
47365;SDS011;33105;47.964;7.982;2023-08-01T01:15:47;11.00;;;5.70;;
47365;SDS011;33105;47.964;7.982;2023-08-01T01:19:47;7.55;;;4.80;;
47365;SDS011;33105;47.964;7.982;2023-08-01T01:27:26;11.07;;;5.65;;
47365;SDS011;33105;47.964;7.982;2023-08-01T01:34:24;10.93;;;4.50;;
47365;SDS011;33105;47.964;7.982;2023-08-01T01:37:25;7.50;;;4.30;;
47365;SDS011;33105;47.964;7.982;2023-08-01T01:58:09;8.23;;;3.92;;
47365;SDS011;33105;47.964;7.982;2023-08-01T02:06:39;7.95;;;3.63;;
47365;SDS011;33105;47.964;7.982;2023-08-01T02:10:49;9.95;;;3.75;;
47365;SDS011;33105;47.964;7.982;2023-08-01T02:24:23;10.07;;;3.38;;
47365;SDS011;33105;47.964;7.982;2023-08-01T02:28:26;8.07;;;3.55;;
47365;SDS011;33105;47.964;7.982;2023-08-01T02:41:35;9.20;;;3.22;;
47365;SDS011;33105;47.964;7.982;2023-08-01T02:45:38;10.45;;;3.33;;
47365;SDS011;33105;47.964;7.982;2023-08-01T02:49:25;7.40;;;3.20;;
47365;SDS011;33105;47.964;7.982;2023-08-01T02:53:24;7.78;;;3.03;;
47365;SDS011;33105;47.964;7.982;2023-08-01T02:56:27;13.82;;;3.20;;
47365;SDS011;33105;47.964;7.982;2023-08-01T02:59:39;9.35;;;3.08;;
47365;SDS011;33105;47.964;7.982;2023-08-01T03:03:45;8.05;;;3.28;;
47365;SDS011;33105;47.964;7.982;2023-08-01T03:07:53;7.88;;;3.00;;
47365;SDS011;33105;47.964;7.982;2023-08-01T03:12:09;6.78;;;2.85;;
47365;SDS011;33105;47.964;7.982;2023-08-01T03:18:43;7.28;;;3.35;;
47365;SDS011;33105;47.964;7.982;2023-08-01T03:21:44;8.93;;;3.60;;
47365;SDS011;33105;47.964;7.982;2023-08-01T03:24:55;9.05;;;3.22;;
47365;SDS011;33105;47.964;7.982;2023-08-01T03:36:30;10.07;;;3.22;;
47365;SDS011;33105;47.964;7.982;2023-08-01T03:44:41;9.43;;;3.70;;
47365;SDS011;33105;47.964;7.982;2023-08-01T03:48:47;6.75;;;3.58;;
47365;SDS011;33105;47.964;7.982;2023-08-01T03:53:04;7.97;;;3.70;;
47365;SDS011;33105;47.964;7.982;2023-08-01T03:56:28;9.35;;;3.88;;
47365;SDS011;33105;47.964;7.982;2023-08-01T04:03:22;6.88;;;3.60;;
47365;SDS011;33105;47.964;7.982;2023-08-01T04:06:25;7.13;;;3.47;;
47365;SDS011;33105;47.964;7.982;2023-08-01T04:10:26;7.15;;;3.60;;
47365;SDS011;33105;47.964;7.982;2023-08-01T04:14:35;6.10;;;3.72;;
47365;SDS011;33105;47.964;7.982;2023-08-01T04:17:47;8.38;;;3.90;;
47365;SDS011;33105;47.964;7.982;2023-08-01T04:21:01;5.65;;;3.20;;
47365;SDS011;33105;47.964;7.982;2023-08-01T04:24:10;8.43;;;3.78;;
47365;SDS011;33105;47.964;7.982;2023-08-01T04:27:18;6.93;;;3.47;;
47365;SDS011;33105;47.964;7.982;2023-08-01T04:34:22;9.27;;;3.60;;
47365;SDS011;33105;47.964;7.982;2023-08-01T04:38:20;8.60;;;3.40;;
47365;SDS011;33105;47.964;7.982;2023-08-01T04:47:10;7.47;;;3.72;;
47365;SDS011;33105;47.964;7.982;2023-08-01T04:50:46;12.90;;;4.00;;
47365;SDS011;33105;47.964;7.982;2023-08-01T04:54:09;11.03;;;3.97;;
47365;SDS011;33105;47.964;7.982;2023-08-01T04:58:40;8.07;;;3.90;;
47365;SDS011;33105;47.964;7.982;2023-08-01T05:06:04;13.07;;;4.32;;
47365;SDS011;33105;47.964;7.982;2023-08-01T05:09:33;12.13;;;4.68;;
47365;SDS011;33105;47.964;7.982;2023-08-01T05:12:38;10.65;;;4.40;;
47365;SDS011;33105;47.964;7.982;2023-08-01T05:21:50;8.85;;;5.10;;
47365;SDS011;33105;47.964;7.982;2023-08-01T05:24:32;8.73;;;4.60;;
47365;SDS011;33105;47.964;7.982;2023-08-01T05:27:36;13.65;;;6.35;;
47365;SDS011;33105;47.964;7.982;2023-08-01T05:30:53;13.25;;;6.95;;
47365;SDS011;33105;47.964;7.982;2023-08-01T05:33:55;11.40;;;6.40;;
47365;SDS011;33105;47.964;7.982;2023-08-01T05:37:12;9.68;;;5.70;;
47365;SDS011;33105;47.964;7.982;2023-08-01T05:40:15;9.45;;;5.90;;
47365;SDS011;33105;47.964;7.982;2023-08-01T05:43:46;10.20;;;5.63;;
47365;SDS011;33105;47.964;7.982;2023-08-01T05:47:06;12.18;;;6.03;;
47365;SDS011;33105;47.964;7.982;2023-08-01T05:50:19;11.10;;;7.38;;
47365;SDS011;33105;47.964;7.982;2023-08-01T05:53:21;12.95;;;7.90;;
47365;SDS011;33105;47.964;7.982;2023-08-01T05:56:33;11.05;;;6.68;;
47365;SDS011;33105;47.964;7.982;2023-08-01T06:00:19;9.35;;;5.90;;
47365;SDS011;33105;47.964;7.982;2023-08-01T06:03:25;12.35;;;6.50;;
47365;SDS011;33105;47.964;7.982;2023-08-01T06:07:03;11.93;;;5.05;;
47365;SDS011;33105;47.964;7.982;2023-08-01T06:10:05;9.02;;;4.82;;
47365;SDS011;33105;47.964;7.982;2023-08-01T06:13:08;11.02;;;4.97;;
47365;SDS011;33105;47.964;7.982;2023-08-01T06:16:17;7.63;;;4.80;;
47365;SDS011;33105;47.964;7.982;2023-08-01T06:19:19;6.15;;;4.40;;
47365;SDS011;33105;47.964;7.982;2023-08-01T06:22:29;8.63;;;4.68;;
47365;SDS011;33105;47.964;7.982;2023-08-01T06:29:44;11.25;;;5.05;;
47365;SDS011;33105;47.964;7.982;2023-08-01T06:32:54;6.70;;;4.80;;
47365;SDS011;33105;47.964;7.982;2023-08-01T06:36:33;11.32;;;5.00;;
47365;SDS011;33105;47.964;7.982;2023-08-01T06:39:34;8.98;;;5.50;;
47365;SDS011;33105;47.964;7.982;2023-08-01T06:42:36;6.63;;;4.72;;
47365;SDS011;33105;47.964;7.982;2023-08-01T06:45:56;10.57;;;5.05;;
47365;SDS011;33105;47.964;7.982;2023-08-01T06:49:04;10.05;;;4.35;;
47365;SDS011;33105;47.964;7.982;2023-08-01T06:52:15;4.57;;;3.47;;
47365;SDS011;33105;47.964;7.982;2023-08-01T06:55:19;5.28;;;2.95;;
47365;SDS011;33105;47.964;7.982;2023-08-01T06:58:25;5.55;;;3.17;;
47365;SDS011;33105;47.964;7.982;2023-08-01T07:01:27;4.50;;;3.00;;
47365;SDS011;33105;47.964;7.982;2023-08-01T07:04:30;4.28;;;3.00;;
47365;SDS011;33105;47.964;7.982;2023-08-01T07:07:32;6.25;;;3.35;;
47365;SDS011;33105;47.964;7.982;2023-08-01T07:10:40;5.78;;;3.33;;
47365;SDS011;33105;47.964;7.982;2023-08-01T07:13:41;7.22;;;3.60;;
47365;SDS011;33105;47.964;7.982;2023-08-01T07:16:44;6.47;;;3.08;;
47365;SDS011;33105;47.964;7.982;2023-08-01T07:19:53;3.20;;;2.60;;
47365;SDS011;33105;47.964;7.982;2023-08-01T07:26:11;4.18;;;2.60;;
47365;SDS011;33105;47.964;7.982;2023-08-01T07:29:15;2.28;;;1.80;;
47365;SDS011;33105;47.964;7.982;2023-08-01T07:33:13;3.10;;;2.20;;
47365;SDS011;33105;47.964;7.982;2023-08-01T07:36:31;7.43;;;2.17;;
47365;SDS011;33105;47.964;7.982;2023-08-01T07:39:40;3.47;;;2.10;;
47365;SDS011;33105;47.964;7.982;2023-08-01T07:42:57;4.03;;;2.10;;
47365;SDS011;33105;47.964;7.982;2023-08-01T07:46:56;6.22;;;1.92;;
47365;SDS011;33105;47.964;7.982;2023-08-01T07:50:22;2.28;;;1.67;;
47365;SDS011;33105;47.964;7.982;2023-08-01T07:54:27;3.17;;;1.67;;
47365;SDS011;33105;47.964;7.982;2023-08-01T07:58:10;2.47;;;1.38;;
47365;SDS011;33105;47.964;7.982;2023-08-01T08:01:14;2.22;;;0.90;;
47365;SDS011;33105;47.964;7.982;2023-08-01T08:04:25;5.55;;;1.30;;
47365;SDS011;33105;47.964;7.982;2023-08-01T08:07:26;4.80;;;1.15;;
47365;SDS011;33105;47.964;7.982;2023-08-01T08:12:01;3.22;;;0.60;;
47365;SDS011;33105;47.964;7.982;2023-08-01T08:15:33;2.10;;;1.10;;
47365;SDS011;33105;47.964;7.982;2023-08-01T08:24:02;3.92;;;1.40;;
47365;SDS011;33105;47.964;7.982;2023-08-01T08:27:48;1.48;;;1.10;;
47365;SDS011;33105;47.964;7.982;2023-08-01T08:30:57;3.58;;;1.00;;
47365;SDS011;33105;47.964;7.982;2023-08-01T08:35:06;1.27;;;0.90;;
47365;SDS011;33105;47.964;7.982;2023-08-01T08:38:13;1.08;;;0.90;;
47365;SDS011;33105;47.964;7.982;2023-08-01T08:41:23;1.73;;;1.05;;
47365;SDS011;33105;47.964;7.982;2023-08-01T08:44:56;1.80;;;0.90;;
47365;SDS011;33105;47.964;7.982;2023-08-01T08:48:14;1.60;;;1.05;;
47365;SDS011;33105;47.964;7.982;2023-08-01T08:51:30;2.05;;;1.60;;
47365;SDS011;33105;47.964;7.982;2023-08-01T08:54:32;3.80;;;1.45;;
47365;SDS011;33105;47.964;7.982;2023-08-01T08:57:38;3.03;;;1.50;;
47365;SDS011;33105;47.964;7.982;2023-08-01T09:01:31;3.15;;;1.30;;
47365;SDS011;33105;47.964;7.982;2023-08-01T09:14:10;6.30;;;1.20;;
47365;SDS011;33105;47.964;7.982;2023-08-01T09:17:53;2.08;;;1.25;;
47365;SDS011;33105;47.964;7.982;2023-08-01T09:21:17;1.70;;;1.27;;
47365;SDS011;33105;47.964;7.982;2023-08-01T09:24:20;3.95;;;1.40;;
47365;SDS011;33105;47.964;7.982;2023-08-01T09:32:17;1.30;;;1.20;;
47365;SDS011;33105;47.964;7.982;2023-08-01T09:35:50;1.17;;;1.08;;
47365;SDS011;33105;47.964;7.982;2023-08-01T09:39:08;1.08;;;1.00;;
47365;SDS011;33105;47.964;7.982;2023-08-01T09:42:25;2.55;;;1.25;;
47365;SDS011;33105;47.964;7.982;2023-08-01T09:45:55;2.83;;;1.30;;
47365;SDS011;33105;47.964;7.982;2023-08-01T09:49:15;5.53;;;1.30;;
47365;SDS011;33105;47.964;7.982;2023-08-01T09:52:32;4.88;;;1.30;;
47365;SDS011;33105;47.964;7.982;2023-08-01T09:55:44;2.13;;;1.35;;
47365;SDS011;33105;47.964;7.982;2023-08-01T09:59:13;1.50;;;1.23;;
47365;SDS011;33105;47.964;7.982;2023-08-01T10:02:20;4.95;;;1.33;;
47365;SDS011;33105;47.964;7.982;2023-08-01T10:06:03;2.35;;;1.20;;
47365;SDS011;33105;47.964;7.982;2023-08-01T10:09:15;4.00;;;1.27;;
47365;SDS011;33105;47.964;7.982;2023-08-01T10:12:29;3.20;;;1.50;;
47365;SDS011;33105;47.964;7.982;2023-08-01T10:16:51;3.80;;;1.58;;
47365;SDS011;33105;47.964;7.982;2023-08-01T10:19:53;3.80;;;1.67;;
47365;SDS011;33105;47.964;7.982;2023-08-01T10:23:38;2.55;;;1.60;;
47365;SDS011;33105;47.964;7.982;2023-08-01T10:26:47;3.97;;;1.83;;
47365;SDS011;33105;47.964;7.982;2023-08-01T10:29:58;2.63;;;1.63;;
47365;SDS011;33105;47.964;7.982;2023-08-01T10:33:11;2.70;;;1.48;;
47365;SDS011;33105;47.964;7.982;2023-08-01T10:36:29;1.60;;;1.30;;
47365;SDS011;33105;47.964;7.982;2023-08-01T10:43:06;3.08;;;1.48;;
47365;SDS011;33105;47.964;7.982;2023-08-01T10:47:07;1.40;;;1.13;;
47365;SDS011;33105;47.964;7.982;2023-08-01T10:54:23;2.42;;;1.20;;
47365;SDS011;33105;47.964;7.982;2023-08-01T10:57:53;2.67;;;1.42;;
47365;SDS011;33105;47.964;7.982;2023-08-01T11:01:13;1.98;;;1.45;;
47365;SDS011;33105;47.964;7.982;2023-08-01T11:04:20;2.92;;;1.17;;
47365;SDS011;33105;47.964;7.982;2023-08-01T11:18:45;2.75;;;1.40;;
47365;SDS011;33105;47.964;7.982;2023-08-01T11:21:50;2.25;;;1.20;;
47365;SDS011;33105;47.964;7.982;2023-08-01T11:24:59;2.10;;;1.27;;
47365;SDS011;33105;47.964;7.982;2023-08-01T11:28:07;2.75;;;1.02;;
47365;SDS011;33105;47.964;7.982;2023-08-01T11:31:29;1.43;;;1.00;;
47365;SDS011;33105;47.964;7.982;2023-08-01T11:34:39;2.58;;;1.08;;
47365;SDS011;33105;47.964;7.982;2023-08-01T11:37:50;0.83;;;0.77;;
47365;SDS011;33105;47.964;7.982;2023-08-01T11:40:58;2.05;;;1.13;;
47365;SDS011;33105;47.964;7.982;2023-08-01T11:44:01;1.38;;;1.00;;
47365;SDS011;33105;47.964;7.982;2023-08-01T11:47:09;2.03;;;0.93;;
47365;SDS011;33105;47.964;7.982;2023-08-01T11:50:26;1.70;;;1.00;;
47365;SDS011;33105;47.964;7.982;2023-08-01T11:53:30;1.10;;;0.90;;
47365;SDS011;33105;47.964;7.982;2023-08-01T11:56:39;1.13;;;0.93;;
47365;SDS011;33105;47.964;7.982;2023-08-01T11:59:48;2.28;;;1.00;;
47365;SDS011;33105;47.964;7.982;2023-08-01T12:03:16;1.00;;;0.70;;
47365;SDS011;33105;47.964;7.982;2023-08-01T12:06:17;1.63;;;0.90;;
47365;SDS011;33105;47.964;7.982;2023-08-01T12:09:20;1.33;;;0.70;;
47365;SDS011;33105;47.964;7.982;2023-08-01T12:12:22;0.95;;;0.60;;
47365;SDS011;33105;47.964;7.982;2023-08-01T12:15:23;0.43;;;0.32;;
47365;SDS011;33105;47.964;7.982;2023-08-01T12:18:25;0.88;;;0.35;;
47365;SDS011;33105;47.964;7.982;2023-08-01T12:21:28;0.50;;;0.38;;
47365;SDS011;33105;47.964;7.982;2023-08-01T12:24:30;1.10;;;0.40;;
47365;SDS011;33105;47.964;7.982;2023-08-01T12:27:34;2.67;;;0.40;;
47365;SDS011;33105;47.964;7.982;2023-08-01T12:30:38;0.50;;;0.50;;
47365;SDS011;33105;47.964;7.982;2023-08-01T12:33:41;0.55;;;0.40;;
47365;SDS011;33105;47.964;7.982;2023-08-01T12:36:43;0.32;;;0.30;;
47365;SDS011;33105;47.964;7.982;2023-08-01T12:39:46;1.08;;;0.50;;
47365;SDS011;33105;47.964;7.982;2023-08-01T12:42:48;0.40;;;0.40;;
47365;SDS011;33105;47.964;7.982;2023-08-01T12:45:50;0.70;;;0.50;;
47365;SDS011;33105;47.964;7.982;2023-08-01T12:48:51;0.80;;;0.50;;
47365;SDS011;33105;47.964;7.982;2023-08-01T12:51:52;1.25;;;0.57;;
47365;SDS011;33105;47.964;7.982;2023-08-01T12:54:54;0.93;;;0.40;;
47365;SDS011;33105;47.964;7.982;2023-08-01T12:57:55;0.80;;;0.40;;
47365;SDS011;33105;47.964;7.982;2023-08-01T13:00:57;0.68;;;0.50;;
47365;SDS011;33105;47.964;7.982;2023-08-01T13:03:59;2.55;;;0.75;;
47365;SDS011;33105;47.964;7.982;2023-08-01T13:07:01;0.77;;;0.60;;
47365;SDS011;33105;47.964;7.982;2023-08-01T13:10:02;1.42;;;0.47;;
47365;SDS011;33105;47.964;7.982;2023-08-01T13:13:04;3.72;;;0.40;;
47365;SDS011;33105;47.964;7.982;2023-08-01T13:16:49;1.63;;;0.40;;
47365;SDS011;33105;47.964;7.982;2023-08-01T13:19:44;1.08;;;0.50;;
47365;SDS011;33105;47.964;7.982;2023-08-01T13:23:10;0.60;;;0.40;;
47365;SDS011;33105;47.964;7.982;2023-08-01T13:26:14;0.82;;;0.40;;
47365;SDS011;33105;47.964;7.982;2023-08-01T13:29:37;0.47;;;0.40;;
47365;SDS011;33105;47.964;7.982;2023-08-01T13:33:17;0.75;;;0.40;;
47365;SDS011;33105;47.964;7.982;2023-08-01T13:36:45;1.58;;;0.40;;
47365;SDS011;33105;47.964;7.982;2023-08-01T13:40:15;2.05;;;0.60;;
47365;SDS011;33105;47.964;7.982;2023-08-01T13:43:17;3.25;;;0.80;;
47365;SDS011;33105;47.964;7.982;2023-08-01T13:46:19;2.63;;;0.65;;
47365;SDS011;33105;47.964;7.982;2023-08-01T13:49:20;1.85;;;0.75;;
47365;SDS011;33105;47.964;7.982;2023-08-01T13:52:29;5.00;;;0.80;;
47365;SDS011;33105;47.964;7.982;2023-08-01T13:55:48;2.08;;;0.52;;
47365;SDS011;33105;47.964;7.982;2023-08-01T13:58:50;1.75;;;0.60;;
47365;SDS011;33105;47.964;7.982;2023-08-01T14:01:52;1.52;;;0.70;;
47365;SDS011;33105;47.964;7.982;2023-08-01T14:04:53;1.75;;;0.70;;
47365;SDS011;33105;47.964;7.982;2023-08-01T14:07:55;1.20;;;0.77;;
47365;SDS011;33105;47.964;7.982;2023-08-01T14:10:57;0.85;;;0.50;;
47365;SDS011;33105;47.964;7.982;2023-08-01T14:13:59;0.85;;;0.60;;
47365;SDS011;33105;47.964;7.982;2023-08-01T14:17:00;1.63;;;0.80;;
47365;SDS011;33105;47.964;7.982;2023-08-01T14:20:02;0.60;;;0.60;;
47365;SDS011;33105;47.964;7.982;2023-08-01T14:23:06;1.27;;;0.68;;
47365;SDS011;33105;47.964;7.982;2023-08-01T14:26:09;3.83;;;0.55;;
47365;SDS011;33105;47.964;7.982;2023-08-01T14:29:11;0.60;;;0.55;;
47365;SDS011;33105;47.964;7.982;2023-08-01T14:32:12;1.17;;;0.70;;
47365;SDS011;33105;47.964;7.982;2023-08-01T14:35:14;0.60;;;0.60;;
47365;SDS011;33105;47.964;7.982;2023-08-01T14:38:15;1.83;;;0.70;;
47365;SDS011;33105;47.964;7.982;2023-08-01T14:41:17;1.20;;;0.60;;
47365;SDS011;33105;47.964;7.982;2023-08-01T14:44:19;0.65;;;0.60;;
47365;SDS011;33105;47.964;7.982;2023-08-01T14:47:24;0.45;;;0.40;;
47365;SDS011;33105;47.964;7.982;2023-08-01T14:50:29;1.02;;;0.63;;
47365;SDS011;33105;47.964;7.982;2023-08-01T14:53:36;1.02;;;0.70;;
47365;SDS011;33105;47.964;7.982;2023-08-01T14:56:41;2.28;;;0.70;;
47365;SDS011;33105;47.964;7.982;2023-08-01T15:00:35;1.80;;;0.77;;
47365;SDS011;33105;47.964;7.982;2023-08-01T15:07:09;0.63;;;0.60;;
47365;SDS011;33105;47.964;7.982;2023-08-01T15:10:10;2.75;;;0.75;;
47365;SDS011;33105;47.964;7.982;2023-08-01T15:13:12;0.75;;;0.65;;
47365;SDS011;33105;47.964;7.982;2023-08-01T15:16:14;2.00;;;0.88;;
47365;SDS011;33105;47.964;7.982;2023-08-01T15:19:15;2.30;;;1.10;;
47365;SDS011;33105;47.964;7.982;2023-08-01T15:22:18;1.58;;;0.70;;
47365;SDS011;33105;47.964;7.982;2023-08-01T15:25:20;1.13;;;1.00;;
47365;SDS011;33105;47.964;7.982;2023-08-01T15:28:22;1.83;;;0.75;;
47365;SDS011;33105;47.964;7.982;2023-08-01T15:31:25;1.08;;;0.80;;
47365;SDS011;33105;47.964;7.982;2023-08-01T15:34:27;2.80;;;0.77;;
47365;SDS011;33105;47.964;7.982;2023-08-01T15:37:29;2.75;;;0.90;;
47365;SDS011;33105;47.964;7.982;2023-08-01T15:40:30;1.58;;;0.98;;
47365;SDS011;33105;47.964;7.982;2023-08-01T15:43:32;1.38;;;0.80;;
47365;SDS011;33105;47.964;7.982;2023-08-01T15:46:40;2.00;;;0.90;;
47365;SDS011;33105;47.964;7.982;2023-08-01T15:49:41;2.67;;;0.90;;
47365;SDS011;33105;47.964;7.982;2023-08-01T15:52:43;4.97;;;0.80;;
47365;SDS011;33105;47.964;7.982;2023-08-01T15:55:45;0.98;;;0.63;;
47365;SDS011;33105;47.964;7.982;2023-08-01T15:58:58;5.40;;;0.90;;
47365;SDS011;33105;47.964;7.982;2023-08-01T16:01:59;1.48;;;1.20;;
47365;SDS011;33105;47.964;7.982;2023-08-01T16:05:01;1.13;;;0.90;;
47365;SDS011;33105;47.964;7.982;2023-08-01T16:08:03;6.43;;;1.73;;
47365;SDS011;33105;47.964;7.982;2023-08-01T16:11:08;2.03;;;1.25;;
47365;SDS011;33105;47.964;7.982;2023-08-01T16:14:10;2.67;;;1.38;;
47365;SDS011;33105;47.964;7.982;2023-08-01T16:17:13;1.52;;;1.20;;
47365;SDS011;33105;47.964;7.982;2023-08-01T16:20:15;4.78;;;1.27;;
47365;SDS011;33105;47.964;7.982;2023-08-01T16:23:20;4.75;;;1.58;;
47365;SDS011;33105;47.964;7.982;2023-08-01T16:26:23;2.50;;;1.20;;
47365;SDS011;33105;47.964;7.982;2023-08-01T16:29:25;1.20;;;1.10;;
47365;SDS011;33105;47.964;7.982;2023-08-01T16:32:47;3.85;;;1.48;;
47365;SDS011;33105;47.964;7.982;2023-08-01T16:35:58;1.67;;;1.10;;
47365;SDS011;33105;47.964;7.982;2023-08-01T16:39:08;1.60;;;1.30;;
47365;SDS011;33105;47.964;7.982;2023-08-01T16:42:18;2.13;;;1.35;;
47365;SDS011;33105;47.964;7.982;2023-08-01T16:45:26;1.88;;;1.20;;
47365;SDS011;33105;47.964;7.982;2023-08-01T16:48:28;1.30;;;1.13;;
47365;SDS011;33105;47.964;7.982;2023-08-01T16:52:00;1.80;;;1.40;;
47365;SDS011;33105;47.964;7.982;2023-08-01T16:55:02;1.98;;;1.30;;
47365;SDS011;33105;47.964;7.982;2023-08-01T16:58:06;2.13;;;1.42;;
47365;SDS011;33105;47.964;7.982;2023-08-01T17:01:10;3.15;;;1.50;;
47365;SDS011;33105;47.964;7.982;2023-08-01T17:04:11;1.90;;;1.15;;
47365;SDS011;33105;47.964;7.982;2023-08-01T17:07:16;2.28;;;1.30;;
47365;SDS011;33105;47.964;7.982;2023-08-01T17:10:22;1.55;;;1.30;;
47365;SDS011;33105;47.964;7.982;2023-08-01T17:13:27;2.60;;;1.05;;
47365;SDS011;33105;47.964;7.982;2023-08-01T17:16:30;2.50;;;1.40;;
47365;SDS011;33105;47.964;7.982;2023-08-01T17:19:35;4.32;;;1.50;;
47365;SDS011;33105;47.964;7.982;2023-08-01T17:22:37;1.42;;;1.30;;
47365;SDS011;33105;47.964;7.982;2023-08-01T17:26:13;1.80;;;1.17;;
47365;SDS011;33105;47.964;7.982;2023-08-01T17:29:14;3.22;;;1.80;;
47365;SDS011;33105;47.964;7.982;2023-08-01T17:32:17;4.32;;;1.30;;
47365;SDS011;33105;47.964;7.982;2023-08-01T17:35:20;2.00;;;1.30;;
47365;SDS011;33105;47.964;7.982;2023-08-01T17:38:26;1.50;;;1.20;;
47365;SDS011;33105;47.964;7.982;2023-08-01T17:46:25;1.80;;;1.08;;
47365;SDS011;33105;47.964;7.982;2023-08-01T17:49:27;2.03;;;1.20;;
47365;SDS011;33105;47.964;7.982;2023-08-01T17:53:21;2.40;;;1.17;;
47365;SDS011;33105;47.964;7.982;2023-08-01T17:57:28;2.85;;;1.15;;
47365;SDS011;33105;47.964;7.982;2023-08-01T18:00:55;4.47;;;1.25;;
47365;SDS011;33105;47.964;7.982;2023-08-01T18:04:21;2.17;;;1.10;;
47365;SDS011;33105;47.964;7.982;2023-08-01T18:07:29;2.00;;;1.10;;
47365;SDS011;33105;47.964;7.982;2023-08-01T18:10:49;2.70;;;1.20;;
47365;SDS011;33105;47.964;7.982;2023-08-01T18:14:39;2.38;;;1.20;;
47365;SDS011;33105;47.964;7.982;2023-08-01T18:17:41;2.47;;;1.05;;
47365;SDS011;33105;47.964;7.982;2023-08-01T18:20:59;2.17;;;1.38;;
47365;SDS011;33105;47.964;7.982;2023-08-01T18:24:12;1.92;;;1.23;;
47365;SDS011;33105;47.964;7.982;2023-08-01T18:31:14;2.70;;;1.10;;
47365;SDS011;33105;47.964;7.982;2023-08-01T18:34:27;3.28;;;1.55;;
47365;SDS011;33105;47.964;7.982;2023-08-01T18:37:39;2.33;;;1.10;;
47365;SDS011;33105;47.964;7.982;2023-08-01T18:41:01;7.15;;;1.88;;
47365;SDS011;33105;47.964;7.982;2023-08-01T18:45:01;3.20;;;1.02;;
47365;SDS011;33105;47.964;7.982;2023-08-01T18:49:03;3.47;;;1.13;;
47365;SDS011;33105;47.964;7.982;2023-08-01T18:52:06;2.88;;;1.33;;
47365;SDS011;33105;47.964;7.982;2023-08-01T18:58:37;5.20;;;1.40;;
47365;SDS011;33105;47.964;7.982;2023-08-01T19:01:59;6.28;;;1.55;;
47365;SDS011;33105;47.964;7.982;2023-08-01T19:05:28;2.17;;;1.20;;
47365;SDS011;33105;47.964;7.982;2023-08-01T19:11:01;2.55;;;1.27;;
47365;SDS011;33105;47.964;7.982;2023-08-01T19:15:01;2.30;;;1.27;;
47365;SDS011;33105;47.964;7.982;2023-08-01T19:19:28;5.25;;;1.50;;
47365;SDS011;33105;47.964;7.982;2023-08-01T19:27:30;3.13;;;1.25;;
47365;SDS011;33105;47.964;7.982;2023-08-01T19:35:47;4.28;;;1.50;;
47365;SDS011;33105;47.964;7.982;2023-08-01T19:39:40;3.83;;;1.30;;
47365;SDS011;33105;47.964;7.982;2023-08-01T19:48:52;3.38;;;1.50;;
47365;SDS011;33105;47.964;7.982;2023-08-01T19:52:55;3.42;;;1.10;;
47365;SDS011;33105;47.964;7.982;2023-08-01T19:56:45;3.78;;;1.15;;
47365;SDS011;33105;47.964;7.982;2023-08-01T19:59:51;4.53;;;1.30;;
47365;SDS011;33105;47.964;7.982;2023-08-01T20:02:56;6.60;;;1.40;;
47365;SDS011;33105;47.964;7.982;2023-08-01T20:05:58;4.30;;;1.27;;
47365;SDS011;33105;47.964;7.982;2023-08-01T20:09:39;5.20;;;1.63;;
47365;SDS011;33105;47.964;7.982;2023-08-01T20:13:07;1.95;;;1.45;;
47365;SDS011;33105;47.964;7.982;2023-08-01T20:17:13;4.40;;;1.67;;
47365;SDS011;33105;47.964;7.982;2023-08-01T20:20:16;4.10;;;1.40;;
47365;SDS011;33105;47.964;7.982;2023-08-01T20:36:44;3.10;;;1.17;;
47365;SDS011;33105;47.964;7.982;2023-08-01T20:40:34;2.22;;;1.30;;
47365;SDS011;33105;47.964;7.982;2023-08-01T20:43:48;2.83;;;1.30;;
47365;SDS011;33105;47.964;7.982;2023-08-01T20:47:58;3.45;;;1.52;;
47365;SDS011;33105;47.964;7.982;2023-08-01T21:11:21;2.55;;;1.48;;
47365;SDS011;33105;47.964;7.982;2023-08-01T21:15:41;4.80;;;1.35;;
47365;SDS011;33105;47.964;7.982;2023-08-01T21:18:43;4.63;;;1.40;;
47365;SDS011;33105;47.964;7.982;2023-08-01T21:22:25;3.10;;;1.60;;
47365;SDS011;33105;47.964;7.982;2023-08-01T21:26:25;3.65;;;1.30;;
47365;SDS011;33105;47.964;7.982;2023-08-01T21:34:23;7.78;;;1.55;;
47365;SDS011;33105;47.964;7.982;2023-08-01T21:43:18;3.13;;;1.58;;
47365;SDS011;33105;47.964;7.982;2023-08-01T21:46:30;3.20;;;1.30;;
47365;SDS011;33105;47.964;7.982;2023-08-01T21:49:32;3.92;;;1.52;;
47365;SDS011;33105;47.964;7.982;2023-08-01T21:56:34;3.22;;;1.42;;
47365;SDS011;33105;47.964;7.982;2023-08-01T22:01:16;3.03;;;1.20;;
47365;SDS011;33105;47.964;7.982;2023-08-01T22:05:37;2.60;;;1.30;;
47365;SDS011;33105;47.964;7.982;2023-08-01T22:10:13;4.55;;;1.40;;
47365;SDS011;33105;47.964;7.982;2023-08-01T22:18:44;2.80;;;1.43;;
47365;SDS011;33105;47.964;7.982;2023-08-01T22:22:12;6.90;;;1.95;;
47365;SDS011;33105;47.964;7.982;2023-08-01T22:25:53;2.87;;;1.73;;
47365;SDS011;33105;47.964;7.982;2023-08-01T22:38:34;5.38;;;1.55;;
47365;SDS011;33105;47.964;7.982;2023-08-01T22:42:17;5.00;;;1.58;;
47365;SDS011;33105;47.964;7.982;2023-08-01T22:55:06;3.67;;;1.50;;
47365;SDS011;33105;47.964;7.982;2023-08-01T23:13:55;4.50;;;1.80;;
47365;SDS011;33105;47.964;7.982;2023-08-01T23:17:10;4.47;;;1.73;;
47365;SDS011;33105;47.964;7.982;2023-08-01T23:20:34;4.40;;;1.60;;
47365;SDS011;33105;47.964;7.982;2023-08-01T23:26:11;3.63;;;1.50;;
47365;SDS011;33105;47.964;7.982;2023-08-01T23:43:07;5.97;;;1.60;;
47365;SDS011;33105;47.964;7.982;2023-08-01T23:46:46;4.45;;;1.60;;
47365;SDS011;33105;47.964;7.982;2023-08-01T23:50:59;4.35;;;1.50;;
47365;SDS011;33105;47.964;7.982;2023-08-01T23:55:43;4.95;;;1.83;;
